Aérodrome :
LOGIN :

S'inscrire | Disclaimer

   EN    FR    IT 

 










Légende :    VFR   VFR Marginal   IFR   IFR Intensif   IFR Très Intensif
Visi : 
Plafond : 
>= 8 km
>= 3000ft
5 à 8 km
1000 à 3000 ft
1500m à 5 km
500 à 1000 ft
800 à 1500m
200 à 500 ft
< 800m
< 200 ft
Symboles :   Orages  Brouillard  Fortes neiges  Fortes précipitations  Vent > 20 kt
SIGMETs :   Divers  Orages  Givrage  Turbulence  Onde Orograph.  Cendres Volcan.







- Altitude de l'aérodrome : 239 ft
- Code IATA : VRN


LIPX - Villafranca Int. Verona

DERNIER METAR :
  • 222150Z 22003KT CAVOK 27/19 Q1015

METARs EXPIRÉS :
  • 222120Z 25003KT 190V290 9999 FEW080 28/19 Q1014
  • 222050Z 21003KT 9999 FEW080 27/20 Q1015
  • 222020Z 21005KT 9999 FEW070 28/20 Q1014
  • 221950Z 22004KT 9999 FEW070 29/19 Q1014
  • 221920Z 23004KT CAVOK 29/19 Q1014

TAF TAF LIPX
Valide du 22 à 21h jusqu'au 23 à 06h UTC


222000Z 2221/2306 VRB05KT CAVOK
Pas de NOTAMs connus pour ce terrain.
2 SIGMETs publiés pour la FIR Milano (LIMM) :
 
Orages noyés dans la masse
LIMM SIGMET 3 VALID 222205/230205 LIMM- LIMM MILANO FIR EMBD TS OBS NW OF LINE N4404 E00733 - N4641 E01256 TOP FL420 STNR WKN=
Orages noyés dans la masse
LIMM SIGMET 2 VALID 222005/222205 LIMM- LIMM MILANO FIR EMBD TS OBS NW OF LINE N4404 E00733 - N4641 E01256 TOP FL420 STNR WKN=



MET'MAP, la Météo Aéronautique d'un coup d'oeil ! - Copyright ORBIFLY Décembre 2007 - Disclaimer

ORBIFLY MET'MAP TEAM :

Programmation & Développement : Alexandra Zaïnal
Conception & Développement : Baudouin d'Aumeries
Co-Programmation & Développement : Marc-Olivier Méhu
Soutien technique & logistique : Manuel Goepfert

Contact : metmap@orbifly.com




SOURCES & CREDITS :

   NOAA